Norse Mersey — IBEN — position and weather

sailwx.info

Track history (hours):
 
Tides and Currents Weather Stations Pressure Air Temp Water Temp Dewpoint Dewpoint Depression Visibility Wind Speed Wind Dir Waves Ship Positions

Norse Mersey

Operator: Norse Merchant Ferries

Last reported at 2019-Jan-13 01:48 UTC. Time now 2019-Jan-23 18:03 UTC.
Position N 40°26' E 014°05'.
Warning: this ship's position is 10 days out of date.

Length 175 m; draft 5.6 m.

Type: Ship (hazmat cat D). MMSI: 247026000.

Date/timePositionNaut miles runAvg speedWind from/ knotsBaromVisibWave heightAir tempDewpointWater temp
2019-Jan-13 01:48N 40°26' E 014°05'715.1
2019-Jan-13 01:22N 40°28' E 014°13'515.1
2019-Jan-13 01:00N 40°30' E 014°20'815.3
2019-Jan-13 00:29N 40°33' E 014°29'815.9
2019-Jan-13 00:01N 40°36' E 014°38'1 0.2
2019-Jan-12 17:25N 40°37' E 014°40'615.5
2019-Jan-12 17:00N 40°34' E 014°33'816.0
2019-Jan-12 16:30N 40°31' E 014°23'816.6
2019-Jan-12 16:00N 40°29' E 014°12'815.9
2019-Jan-12 15:30N 40°33' E 014°03'816.1
2019-Jan-12 15:00N 40°37' E 013°54'816.1
2019-Jan-12 14:30N 40°42' E 013°45'816.4
2019-Jan-12 14:00N 40°48' E 013°37'  
Track history (hours):
 
Tides and Currents Weather Stations Pressure Air Temp Water Temp Dewpoint Dewpoint Depression Visibility Wind Speed Wind Dir Waves Ship Positions

Norse Mersey

Operator: Norse Merchant Ferries

Last reported at 2019-Jan-13 01:48 UTC. Time now 2019-Jan-23 18:03 UTC.
Position N 40°26' E 014°05'.
Warning: this ship's position is 10 days out of date.

Length 175 m; draft 5.6 m.

Type: Ship (hazmat cat D). MMSI: 247026000.

Date/timePositionNaut miles runAvg speedWind from/ knotsBaromVisibWave heightAir tempDewpointWater temp
2019-Jan-13 01:48N 40°26' E 014°05'715.1
2019-Jan-13 01:22N 40°28' E 014°13'515.1
2019-Jan-13 01:00N 40°30' E 014°20'815.3
2019-Jan-13 00:29N 40°33' E 014°29'815.9
2019-Jan-13 00:01N 40°36' E 014°38'1 0.2
2019-Jan-12 17:25N 40°37' E 014°40'615.5
2019-Jan-12 17:00N 40°34' E 014°33'816.0
2019-Jan-12 16:30N 40°31' E 014°23'816.6
2019-Jan-12 16:00N 40°29' E 014°12'815.9
2019-Jan-12 15:30N 40°33' E 014°03'816.1
2019-Jan-12 15:00N 40°37' E 013°54'816.1
2019-Jan-12 14:30N 40°42' E 013°45'816.4
2019-Jan-12 14:00N 40°48' E 013°37'  

Dump ship's entire track history